Time;durP1;ratioP1;P1;durP2;ratioP2;P2;SDS_P1;SDS_P2;PMS_P1;PMS_P2;Temp;Humidity;BMP_temperature;BMP_pressure;BME280_temperature;BME280_humidity;BME280_pressure;Samples;Min_cycle;Max_cycle;Signal;HPM_P1;HPM_P2
2022/10/05 00:01:51;;;;;;;4.73;3.20;;;6.60;99.90;;;;;;5065779;23;20933;-67
2022/10/05 00:03:57;;;;;;;4.80;3.53;;;6.60;99.90;;;;;;5064975;23;20413;-67
2022/10/05 00:05:59;;;;;;;5.57;3.17;;;6.60;99.90;;;;;;5066672;23;20600;-68
2022/10/05 00:08:10;;;;;;;6.47;3.43;;;6.50;99.90;;;;;;5041235;23;20745;-67
2022/10/05 00:10:15;;;;;;;6.13;2.93;;;6.50;99.90;;;;;;5066237;23;20706;-67
2022/10/05 00:12:18;;;;;;;5.60;3.40;;;6.40;99.90;;;;;;5040590;23;20407;-67
2022/10/05 00:14:28;;;;;;;3.23;2.77;;;6.40;99.90;;;;;;5066433;23;20409;-67
2022/10/05 00:16:28;;;;;;;6.53;2.50;;;6.40;99.90;;;;;;5066178;23;20509;-67
2022/10/05 00:18:29;;;;;;;4.67;2.77;;;6.30;99.90;;;;;;5066563;23;20386;-67
2022/10/05 00:20:29;;;;;;;5.10;2.90;;;6.30;99.90;;;;;;5065833;23;20169;-67
2022/10/05 00:22:32;;;;;;;3.53;2.80;;;6.30;99.90;;;;;;5066541;23;20163;-67
2022/10/05 00:24:33;;;;;;;3.33;2.60;;;6.30;99.90;;;;;;5066183;23;20193;-67
2022/10/05 00:26:33;;;;;;;3.93;2.93;;;6.30;99.90;;;;;;5066302;23;20441;-67
2022/10/05 00:28:34;;;;;;;3.73;2.40;;;6.20;99.90;;;;;;5066557;23;20198;-67
2022/10/05 00:30:34;;;;;;;5.17;2.80;;;6.20;99.90;;;;;;5065629;23;20170;-67
2022/10/05 00:32:35;;;;;;;5.43;2.97;;;6.20;99.90;;;;;;5066495;23;21028;-68
2022/10/05 00:34:36;;;;;;;3.57;2.73;;;6.20;99.90;;;;;;5066497;23;20174;-67
2022/10/05 00:36:38;;;;;;;4.60;3.03;;;6.10;99.90;;;;;;5066543;23;20260;-67
2022/10/05 00:38:39;;;;;;;3.93;2.63;;;6.00;99.90;;;;;;5066727;23;20472;-67
2022/10/05 00:40:47;;;;;;;4.60;2.97;;;6.00;99.90;;;;;;5065428;23;20414;-66
2022/10/05 00:43:06;;;;;;;6.33;3.17;;;6.00;99.90;;;;;;5066376;23;20396;-66
2022/10/05 00:45:17;;;;;;;6.93;2.67;;;6.00;99.90;;;;;;5066111;23;20386;-67
2022/10/05 00:47:52;;;;;;;3.57;2.43;;;6.00;99.90;;;;;;5066307;23;21654;-66
2022/10/05 00:50:05;;;;;;;3.30;2.37;;;6.00;99.90;;;;;;5066538;23;20941;-67
2022/10/05 00:52:30;;;;;;;3.77;2.80;;;6.00;99.90;;;;;;5065514;23;20414;-67
2022/10/05 00:54:44;;;;;;;3.37;2.60;;;6.00;99.90;;;;;;5066532;23;20414;-67
2022/10/05 00:56:52;;;;;;;5.87;2.93;;;6.10;99.90;;;;;;5066591;23;20864;-67
2022/10/05 00:59:26;;;;;;;3.67;2.70;;;6.10;99.90;;;;;;5066493;23;20509;-67
2022/10/05 01:01:35;;;;;;;5.17;2.53;;;6.10;99.90;;;;;;5065715;23;20441;-67
2022/10/05 01:03:48;;;;;;;3.97;2.60;;;6.20;99.90;;;;;;5066292;23;20410;-66
2022/10/05 01:06:22;;;;;;;3.23;2.60;;;6.30;99.90;;;;;;5066041;23;20394;-67
2022/10/05 01:08:38;;;;;;;3.83;2.77;;;6.20;99.90;;;;;;5066074;23;20410;-66
2022/10/05 01:10:46;;;;;;;3.97;2.60;;;6.10;99.90;;;;;;5065671;23;20378;-66
2022/10/05 01:12:55;;;;;;;4.70;2.23;;;6.10;99.90;;;;;;5066345;23;20768;-66
2022/10/05 01:15:11;;;;;;;4.07;2.43;;;6.00;99.90;;;;;;5066626;23;20425;-67
2022/10/05 01:17:28;;;;;;;2.63;2.00;;;6.00;99.90;;;;;;5066126;23;20390;-67
2022/10/05 01:19:43;;;;;;;3.93;2.37;;;5.90;99.90;;;;;;5066345;23;20390;-67
2022/10/05 01:21:58;;;;;;;3.23;2.40;;;5.80;99.90;;;;;;5065843;23;20500;-66
2022/10/05 01:24:14;;;;;;;4.63;2.40;;;5.80;99.90;;;;;;5065943;23;20808;-66
2022/10/05 01:26:35;;;;;;;3.40;2.30;;;5.70;99.90;;;;;;5066410;23;20520;-67
2022/10/05 01:28:46;;;;;;;3.33;2.40;;;5.70;99.90;;;;;;5067031;23;20421;-67
2022/10/05 01:31:01;;;;;;;4.93;2.53;;;5.80;99.90;;;;;;5067128;23;20476;-67
2022/10/05 01:33:24;;;;;;;3.27;2.47;;;5.70;99.90;;;;;;5067416;23;20429;-67
2022/10/05 01:35:39;;;;;;;5.93;2.60;;;5.70;99.90;;;;;;5068097;23;20401;-67
2022/10/05 01:38:18;;;;;;;4.73;2.30;;;5.70;99.90;;;;;;5068215;23;20730;-67
2022/10/05 01:41:02;;;;;;;2.63;1.90;;;5.60;99.90;;;;;;5022573;23;20404;-66
2022/10/05 01:43:02;;;;;;;5.53;2.37;;;5.60;99.90;;;;;;5011871;23;21116;-67
2022/10/05 01:45:09;;;;;;;4.17;2.33;;;5.60;99.90;;;;;;5067866;23;20397;-66
2022/10/05 01:47:33;;;;;;;6.13;2.50;;;5.50;99.90;;;;;;5068126;23;20276;-66
2022/10/05 01:49:46;;;;;;;2.97;2.30;;;5.50;99.90;;;;;;5067692;23;20421;-67
2022/10/05 01:52:07;;;;;;;4.67;2.30;;;5.50;99.90;;;;;;5066949;23;20473;-66
2022/10/05 01:54:32;;;;;;;3.80;2.30;;;5.50;99.90;;;;;;5067525;23;20973;-67
2022/10/05 01:56:45;;;;;;;2.83;2.30;;;5.60;99.90;;;;;;5068067;23;20390;-66
2022/10/05 01:58:59;;;;;;;2.43;2.00;;;5.50;99.90;;;;;;5042280;23;20421;-65
2022/10/05 02:01:26;;;;;;;3.80;2.27;;;5.50;99.90;;;;;;5067014;23;20444;-66
2022/10/05 02:03:34;;;;;;;3.47;2.10;;;5.50;99.90;;;;;;5068328;23;20436;-66
2022/10/05 02:05:55;;;;;;;4.00;2.60;;;5.50;99.90;;;;;;5068036;23;20386;-66
2022/10/05 02:08:16;;;;;;;3.40;2.30;;;5.50;99.90;;;;;;5068141;23;20390;-66
2022/10/05 02:10:35;;;;;;;3.30;2.57;;;5.40;99.90;;;;;;5066881;23;20775;-66
2022/10/05 02:12:37;;;;;;;3.47;2.40;;;5.40;99.90;;;;;;5067809;23;20433;-66
2022/10/05 02:14:48;;;;;;;4.63;2.30;;;5.40;99.90;;;;;;5061650;23;20748;-67
2022/10/05 02:16:51;;;;;;;4.53;2.30;;;5.40;99.90;;;;;;5067280;23;20800;-66
2022/10/05 02:18:58;;;;;;;4.57;2.60;;;5.40;99.90;;;;;;5067921;23;20389;-66
2022/10/05 02:21:01;;;;;;;5.87;3.30;;;5.30;99.90;;;;;;5067168;23;20388;-66
2022/10/05 02:23:06;;;;;;;6.00;3.17;;;5.30;99.90;;;;;;5067710;23;20432;-66
2022/10/05 02:25:12;;;;;;;4.00;2.70;;;5.30;99.90;;;;;;5067803;23;20492;-66
2022/10/05 02:27:23;;;;;;;3.50;2.40;;;5.30;99.90;;;;;;5067792;23;20436;-66
2022/10/05 02:29:28;;;;;;;4.93;2.90;;;5.30;99.90;;;;;;5067262;23;20425;-65
2022/10/05 02:31:46;;;;;;;4.80;2.87;;;5.30;99.90;;;;;;5066667;23;20390;-66
2022/10/05 02:33:46;;;;;;;5.63;2.63;;;5.20;99.90;;;;;;5067711;23;20496;-66
2022/10/05 02:35:47;;;;;;;4.93;2.77;;;5.10;99.90;;;;;;5067717;23;20427;-66
2022/10/05 02:37:53;;;;;;;5.87;2.73;;;5.20;99.90;;;;;;5067511;23;20168;-66
2022/10/05 02:40:15;;;;;;;3.03;2.10;;;5.20;99.90;;;;;;5067335;23;20647;-66
2022/10/05 02:43:00;;;;;;;2.93;2.43;;;5.20;99.90;;;;;;5041676;23;20513;-66
2022/10/05 02:45:18;;;;;;;3.77;2.40;;;5.10;99.90;;;;;;5033055;23;20930;-66
2022/10/05 02:47:28;;;;;;;4.03;2.40;;;5.20;99.90;;;;;;5067317;23;20767;-66
2022/10/05 02:49:55;;;;;;;4.90;2.40;;;5.10;99.90;;;;;;5067568;23;20389;-66
2022/10/05 02:52:04;;;;;;;4.23;2.27;;;5.00;99.90;;;;;;5067064;23;20469;-67
2022/10/05 02:54:23;;;;;;;7.10;2.63;;;5.00;99.90;;;;;;5067433;23;20414;-66
2022/10/05 02:56:49;;;;;;;4.70;2.70;;;5.00;99.90;;;;;;5067480;23;20389;-67
2022/10/05 02:59:27;;;;;;;3.80;2.30;;;5.00;99.90;;;;;;5067372;23;20476;-67
2022/10/05 03:01:40;;;;;;;3.37;2.40;;;5.00;99.90;;;;;;5066702;23;20476;-67
2022/10/05 03:04:03;;;;;;;4.83;2.47;;;5.00;99.90;;;;;;5067754;23;20419;-67
2022/10/05 03:06:15;;;;;;;4.33;2.30;;;4.90;99.90;;;;;;5067358;23;20420;-66
2022/10/05 03:08:36;;;;;;;2.97;2.23;;;5.00;99.90;;;;;;5067739;23;20443;-66
2022/10/05 03:10:52;;;;;;;3.73;3.07;;;5.00;99.90;;;;;;5066865;23;20448;-66
2022/10/05 03:13:24;;;;;;;3.10;2.40;;;5.00;99.90;;;;;;5067574;23;20807;-66
2022/10/05 03:15:34;;;;;;;4.00;2.00;;;4.90;99.90;;;;;;5067241;23;20937;-66
2022/10/05 03:17:48;;;;;;;3.27;2.33;;;4.90;99.90;;;;;;5067365;23;20416;-67
2022/10/05 03:20:10;;;;;;;4.30;2.20;;;4.80;99.90;;;;;;5067306;23;20400;-68
2022/10/05 03:22:39;;;;;;;3.37;2.07;;;4.90;99.90;;;;;;5067491;23;20722;-67
2022/10/05 03:25:16;;;;;;;3.50;2.27;;;4.80;99.90;;;;;;5067072;23;20755;-67
2022/10/05 03:27:49;;;;;;;4.13;2.43;;;4.80;99.90;;;;;;5067304;23;20942;-67
2022/10/05 03:30:14;;;;;;;4.60;2.53;;;4.80;99.90;;;;;;5026771;23;20408;-66
2022/10/05 03:32:39;;;;;;;3.33;2.53;;;4.90;99.90;;;;;;5067205;23;20720;-67
2022/10/05 03:34:55;;;;;;;8.10;2.70;;;4.90;99.90;;;;;;5066882;23;20467;-67
2022/10/05 03:37:09;;;;;;;3.83;2.80;;;4.90;99.90;;;;;;5066996;23;20394;-67
2022/10/05 03:39:36;;;;;;;5.53;2.60;;;5.00;99.90;;;;;;5067558;23;20393;-67
2022/10/05 03:41:44;;;;;;;3.23;2.37;;;5.00;99.90;;;;;;5066561;23;20905;-67
2022/10/05 03:44:12;;;;;;;5.90;3.00;;;4.90;99.90;;;;;;5067373;23;20401;-66
2022/10/05 03:46:24;;;;;;;3.27;2.40;;;4.80;99.90;;;;;;5066866;23;20432;-67
2022/10/05 03:48:46;;;;;;;5.40;2.63;;;4.80;99.90;;;;;;5066851;23;20721;-67
2022/10/05 03:51:17;;;;;;;3.07;2.63;;;4.70;99.90;;;;;;5065897;23;20391;-67
2022/10/05 03:53:21;;;;;;;5.77;2.50;;;4.70;99.90;;;;;;5066691;23;20439;-67
2022/10/05 03:55:54;;;;;;;3.53;2.63;;;4.70;99.90;;;;;;5066678;23;20885;-66
2022/10/05 03:57:58;;;;;;;7.73;2.97;;;4.70;99.90;;;;;;5026437;23;20411;-67
2022/10/05 04:00:16;;;;;;;8.40;5.00;;;4.50;99.90;;;;;;5066370;23;20427;-67
2022/10/05 04:02:51;;;;;;;6.53;3.90;;;4.40;99.90;;;;;;5040580;23;20412;-67
2022/10/05 04:05:00;;;;;;;7.37;4.80;;;4.40;99.90;;;;;;5066279;23;20458;-67
2022/10/05 04:07:01;;;;;;;5.10;3.47;;;4.40;99.90;;;;;;5067024;23;20435;-66
2022/10/05 04:09:13;;;;;;;6.83;5.53;;;4.40;99.90;;;;;;5066643;23;20415;-66
2022/10/05 04:11:30;;;;;;;7.60;4.80;;;4.40;99.90;;;;;;5065704;23;20160;-67
2022/10/05 04:13:41;;;;;;;7.57;4.57;;;4.40;99.90;;;;;;5066438;23;20427;-67
2022/10/05 04:15:47;;;;;;;6.80;5.50;;;4.40;99.90;;;;;;5066311;23;20512;-68
2022/10/05 04:18:15;;;;;;;11.17;7.57;;;4.30;99.90;;;;;;5066259;23;20388;-67
2022/10/05 04:20:18;;;;;;;9.07;6.07;;;4.40;99.90;;;;;;5065488;23;20385;-66
2022/10/05 04:22:29;;;;;;;9.73;5.90;;;4.40;99.90;;;;;;5066245;23;20392;-65
2022/10/05 04:24:41;;;;;;;5.30;4.67;;;4.50;99.90;;;;;;5066033;23;20415;-66
2022/10/05 04:27:22;;;;;;;5.37;3.90;;;4.40;99.90;;;;;;5066349;23;20474;-66
2022/10/05 04:29:52;;;;;;;6.00;4.67;;;4.40;99.90;;;;;;5065560;23;20497;-67
2022/10/05 04:32:06;;;;;;;6.37;4.60;;;4.40;99.90;;;;;;5065689;23;20412;-66
2022/10/05 04:34:34;;;;;;;5.57;3.70;;;4.40;99.90;;;;;;5040163;23;20436;-66
2022/10/05 04:36:43;;;;;;;4.87;3.50;;;4.30;99.90;;;;;;5041514;23;20454;-66
2022/10/05 04:39:12;;;;;;;4.70;3.20;;;4.30;99.90;;;;;;5041956;23;20922;-66
2022/10/05 04:41:36;;;;;;;4.30;2.90;;;4.30;99.90;;;;;;5041238;23;20421;-66
2022/10/05 04:43:55;;;;;;;4.70;3.00;;;4.30;99.90;;;;;;5041954;23;20476;-66
2022/10/05 04:45:58;;;;;;;3.23;2.80;;;4.20;99.90;;;;;;5041912;23;20394;-66
2022/10/05 04:48:13;;;;;;;6.97;2.70;;;4.20;99.90;;;;;;5041825;23;20385;-66
2022/10/05 04:50:22;;;;;;;45.93;8.30;;;4.20;99.90;;;;;;5041205;23;20386;-65
2022/10/05 04:52:50;;;;;;;6.13;4.10;;;4.10;99.90;;;;;;5041799;23;20419;-66
2022/10/05 04:55:15;;;;;;;7.27;3.90;;;4.10;99.90;;;;;;5041732;23;20435;-65
2022/10/05 04:57:26;;;;;;;4.93;3.70;;;4.10;99.90;;;;;;5040352;23;20418;-66
2022/10/05 04:59:38;;;;;;;4.53;2.73;;;4.10;99.90;;;;;;5041902;23;20413;-66
2022/10/05 05:02:19;;;;;;;4.23;3.27;;;4.00;99.90;;;;;;5041227;23;20443;-66
2022/10/05 05:04:39;;;;;;;3.37;2.83;;;4.10;99.90;;;;;;5017253;23;20433;-66
2022/10/05 05:07:21;;;;;;;3.83;2.80;;;4.20;99.90;;;;;;5041870;23;20437;-66
2022/10/05 05:09:51;;;;;;;4.97;3.07;;;4.20;99.90;;;;;;5041935;23;20381;-65
2022/10/05 05:12:20;;;;;;;4.73;3.23;;;4.30;99.90;;;;;;5041193;23;20389;-65
2022/10/05 05:14:39;;;;;;;5.23;3.00;;;4.40;99.90;;;;;;5041880;23;20420;-66
2022/10/05 05:16:42;;;;;;;4.70;2.73;;;4.40;99.90;;;;;;5041957;23;20387;-66
2022/10/05 05:18:58;;;;;;;4.63;3.10;;;4.40;99.90;;;;;;5041840;23;20393;-65
2022/10/05 05:21:31;;;;;;;6.07;3.30;;;4.40;99.90;;;;;;5041199;23;20399;-66
2022/10/05 05:23:42;;;;;;;6.10;2.93;;;4.40;99.90;;;;;;5041774;23;20416;-66
2022/10/05 05:26:01;;;;;;;4.03;3.30;;;4.50;99.90;;;;;;5041811;23;20385;-66
2022/10/05 05:28:13;;;;;;;5.63;3.87;;;4.50;99.90;;;;;;5041838;23;20394;-66
2022/10/05 05:30:22;;;;;;;4.10;3.17;;;4.50;99.90;;;;;;5040943;23;20377;-66
2022/10/05 05:32:42;;;;;;;5.10;3.10;;;4.50;99.90;;;;;;5043012;23;20378;-66
2022/10/05 05:34:48;;;;;;;4.60;2.80;;;4.60;99.90;;;;;;5065793;23;20882;-67
2022/10/05 05:37:13;;;;;;;5.43;3.40;;;4.60;99.90;;;;;;5066188;23;20897;-66
2022/10/05 05:39:23;;;;;;;4.60;3.17;;;4.60;99.90;;;;;;5040641;23;20873;-66
2022/10/05 05:41:37;;;;;;;4.33;3.30;;;4.60;99.90;;;;;;5065287;23;20481;-66
2022/10/05 05:44:12;;;;;;;9.23;2.90;;;4.80;99.90;;;;;;5066031;23;20469;-66
2022/10/05 05:46:26;;;;;;;6.43;4.50;;;4.90;99.90;;;;;;5065720;23;20403;-66
2022/10/05 05:48:35;;;;;;;5.33;3.33;;;5.00;99.90;;;;;;5040179;23;20521;-67
2022/10/05 05:51:00;;;;;;;10.60;3.77;;;4.90;99.90;;;;;;5065260;23;20388;-66
2022/10/05 05:53:17;;;;;;;5.77;3.80;;;5.00;99.90;;;;;;5065628;23;20742;-65
2022/10/05 05:55:26;;;;;;;7.03;3.90;;;5.20;99.90;;;;;;5040256;23;20488;-66
2022/10/05 05:57:34;;;;;;;5.40;3.73;;;5.20;99.90;;;;;;5065753;23;20410;-66
2022/10/05 05:59:46;;;;;;;7.13;4.60;;;5.10;99.90;;;;;;5065916;23;20427;-66
2022/10/05 06:01:51;;;;;;;7.60;5.07;;;5.10;99.90;;;;;;5065038;23;20731;-66
2022/10/05 06:03:59;;;;;;;9.67;5.73;;;5.10;99.90;;;;;;5066189;23;20879;-66
2022/10/05 06:06:08;;;;;;;9.43;6.40;;;5.20;99.90;;;;;;5065879;23;20730;-66
2022/10/05 06:08:41;;;;;;;10.17;5.90;;;5.20;99.90;;;;;;5065922;23;20382;-67
2022/10/05 06:10:51;;;;;;;11.40;5.50;;;5.20;99.90;;;;;;5065573;23;20397;-66
2022/10/05 06:12:56;;;;;;;8.77;5.30;;;5.30;99.90;;;;;;5065918;23;20463;-67
2022/10/05 06:15:02;;;;;;;8.43;5.40;;;5.30;99.90;;;;;;5066174;23;20493;-66
2022/10/05 06:17:11;;;;;;;10.20;4.10;;;5.40;99.90;;;;;;5067458;23;20384;-66
2022/10/05 06:19:15;;;;;;;6.83;3.80;;;5.60;99.90;;;;;;5041733;23;20450;-66
2022/10/05 06:21:42;;;;;;;5.73;3.53;;;5.80;99.90;;;;;;5066725;23;20406;-66
2022/10/05 06:24:05;;;;;;;6.57;4.23;;;5.80;99.90;;;;;;5067625;23;20405;-66
2022/10/05 06:26:32;;;;;;;8.17;4.93;;;5.90;99.90;;;;;;5046233;23;20434;-66
2022/10/05 06:28:32;;;;;;;7.13;4.17;;;5.90;99.90;;;;;;5067077;23;20386;-66
2022/10/05 06:30:47;;;;;;;6.17;4.07;;;6.00;99.90;;;;;;5066599;23;20425;-66
2022/10/05 06:33:24;;;;;;;5.77;3.87;;;6.10;99.90;;;;;;5066777;23;20205;-66
2022/10/05 06:35:52;;;;;;;6.70;4.90;;;6.20;99.90;;;;;;5067148;23;20786;-66
2022/10/05 06:38:14;;;;;;;4.87;3.40;;;6.30;99.90;;;;;;5067434;23;20385;-67
2022/10/05 06:40:35;;;;;;;6.07;3.47;;;6.30;99.90;;;;;;5066641;23;20386;-66
2022/10/05 06:42:57;;;;;;;4.17;3.60;;;6.40;99.90;;;;;;5007919;23;20918;-66
2022/10/05 06:45:23;;;;;;;5.07;3.47;;;6.30;99.90;;;;;;5067393;23;20406;-66
2022/10/05 06:47:41;;;;;;;5.60;3.37;;;6.40;99.90;;;;;;5067471;23;20429;-66
2022/10/05 06:49:44;;;;;;;7.80;5.03;;;6.50;99.90;;;;;;5067324;23;20763;-65
2022/10/05 06:51:55;;;;;;;4.53;3.73;;;6.50;99.90;;;;;;5066566;23;20386;-66
2022/10/05 06:54:03;;;;;;;5.93;3.90;;;6.60;99.90;;;;;;5067569;23;20887;-65
2022/10/05 06:56:29;;;;;;;9.43;3.83;;;6.70;99.90;;;;;;5067225;23;20798;-65
2022/10/05 06:58:45;;;;;;;4.87;3.10;;;6.90;99.90;;;;;;5065971;23;20489;-65
2022/10/05 07:01:10;;;;;;;5.37;3.63;;;7.00;99.90;;;;;;5066342;23;20870;-66
2022/10/05 07:03:39;;;;;;;5.10;4.10;;;7.10;99.90;;;;;;5067318;23;20429;-65
2022/10/05 07:06:04;;;;;;;4.97;3.60;;;7.10;99.90;;;;;;5067071;23;20946;-66
2022/10/05 07:08:12;;;;;;;6.23;3.80;;;7.20;99.90;;;;;;5067151;23;20396;-66
2022/10/05 07:10:31;;;;;;;5.83;4.43;;;7.30;99.90;;;;;;5066671;23;20470;-65
2022/10/05 07:12:57;;;;;;;6.20;3.70;;;7.40;99.90;;;;;;5067097;23;20386;-66
2022/10/05 07:15:29;;;;;;;4.53;3.20;;;7.50;99.90;;;;;;5067059;23;20394;-65
2022/10/05 07:17:46;;;;;;;5.70;3.97;;;7.60;99.90;;;;;;5067211;23;20401;-65
2022/10/05 07:20:02;;;;;;;5.77;4.70;;;7.70;99.90;;;;;;5067196;23;20237;-65
2022/10/05 07:22:36;;;;;;;5.73;4.03;;;7.90;99.90;;;;;;5066177;23;20386;-66
2022/10/05 07:24:40;;;;;;;5.53;3.70;;;7.90;99.90;;;;;;5067144;23;20414;-65
2022/10/05 07:26:59;;;;;;;4.43;3.77;;;8.00;99.90;;;;;;5066549;23;20899;-65
2022/10/05 07:29:06;;;;;;;4.20;3.30;;;8.10;99.90;;;;;;5066671;23;21007;-66
2022/10/05 07:31:31;;;;;;;7.20;4.63;;;8.10;99.90;;;;;;5066141;23;20780;-65
2022/10/05 07:33:50;;;;;;;4.53;3.70;;;8.30;99.90;;;;;;5049977;23;20443;-65
2022/10/05 07:38:43;;;;;;;6.83;4.20;;;8.60;99.90;;;;;;5067202;23;20165;-66
2022/10/05 07:41:04;;;;;;;7.30;5.73;;;8.80;99.90;;;;;;5065964;23;20157;-67
2022/10/05 07:43:20;;;;;;;7.53;4.70;;;9.00;99.90;;;;;;5066445;23;20214;-66
2022/10/05 07:45:43;;;;;;;8.20;5.60;;;9.10;99.90;;;;;;5066582;23;20169;-66
2022/10/05 07:47:53;;;;;;;5.63;4.80;;;9.20;99.90;;;;;;5066551;23;20226;-66
2022/10/05 07:50:02;;;;;;;6.90;5.00;;;9.50;99.90;;;;;;5066632;23;20158;-66
2022/10/05 07:52:10;;;;;;;7.00;5.40;;;9.50;99.90;;;;;;5066161;23;20189;-66
2022/10/05 07:54:17;;;;;;;7.83;5.37;;;9.60;99.90;;;;;;5066842;23;20181;-66
2022/10/05 07:56:28;;;;;;;6.63;4.73;;;9.80;99.90;;;;;;5066444;23;20194;-67
2022/10/05 07:58:40;;;;;;;7.53;4.80;;;9.90;99.90;;;;;;5066537;23;20208;-66
2022/10/05 08:00:52;;;;;;;5.90;4.67;;;10.10;99.90;;;;;;5065819;23;20692;-67
2022/10/05 08:03:08;;;;;;;5.97;3.80;;;10.20;99.90;;;;;;5066485;23;20154;-66
2022/10/05 08:05:20;;;;;;;7.27;5.03;;;10.40;99.90;;;;;;5066709;23;20634;-67
2022/10/05 08:07:21;;;;;;;4.30;3.20;;;10.60;99.90;;;;;;5066412;23;20221;-67
2022/10/05 08:09:25;;;;;;;3.20;2.40;;;11.00;99.90;;;;;;5066785;23;20205;-66
2022/10/05 08:11:46;;;;;;;2.90;2.60;;;11.70;99.90;;;;;;5065907;23;20825;-67
2022/10/05 08:13:54;;;;;;;3.57;2.20;;;12.10;99.90;;;;;;5066491;23;20566;-67
2022/10/05 08:15:59;;;;;;;3.37;1.90;;;12.50;99.90;;;;;;5041008;23;20183;-66
2022/10/05 08:18:22;;;;;;;2.60;2.40;;;13.20;99.90;;;;;;5066436;23;20158;-66
2022/10/05 08:20:41;;;;;;;3.77;1.80;;;13.70;99.90;;;;;;5065845;23;20189;-67
2022/10/05 08:22:49;;;;;;;3.47;1.80;;;14.20;99.90;;;;;;5040779;23;20194;-67
2022/10/05 08:24:58;;;;;;;3.33;1.87;;;14.60;99.90;;;;;;5040707;23;20655;-67
2022/10/05 08:27:18;;;;;;;2.27;1.93;;;14.90;99.90;;;;;;5066395;23;20190;-66
2022/10/05 08:29:28;;;;;;;4.10;1.73;;;15.10;99.90;;;;;;5066439;23;20299;-67
2022/10/05 08:31:37;;;;;;;1.50;1.40;;;15.30;99.90;;;;;;5065845;23;20150;-66
2022/10/05 08:34:20;;;;;;;1.57;1.47;;;15.50;99.20;;;;;;5040598;23;20226;-66
2022/10/05 08:36:38;;;;;;;2.40;1.43;;;15.80;98.50;;;;;;5040111;23;20237;-67
2022/10/05 08:38:40;;;;;;;2.30;1.50;;;16.00;97.90;;;;;;5041801;23;20763;-67
2022/10/05 08:41:11;;;;;;;1.83;1.30;;;16.10;95.70;;;;;;5040040;23;20160;-67
2022/10/05 08:43:47;;;;;;;1.90;1.57;;;16.40;93.30;;;;;;5042096;23;20163;-66
2022/10/05 08:46:09;;;;;;;1.30;1.20;;;16.60;91.10;;;;;;5042360;23;20159;-67
2022/10/05 08:48:48;;;;;;;2.97;1.40;;;16.70;92.20;;;;;;5040685;23;20644;-67
2022/10/05 08:51:20;;;;;;;3.33;1.20;;;16.90;88.60;;;;;;5041494;23;20198;-67
2022/10/05 08:54:02;;;;;;;1.37;1.07;;;17.20;85.80;;;;;;5040703;23;20187;-68
2022/10/05 08:56:08;;;;;;;3.67;1.30;;;17.40;81.90;;;;;;5040478;23;20194;-67
2022/10/05 08:59:01;;;;;;;1.30;1.17;;;17.50;78.90;;;;;;5042017;23;20171;-67
2022/10/05 09:01:22;;;;;;;1.60;1.23;;;17.70;79.60;;;;;;5041260;23;20639;-67
2022/10/05 09:04:00;;;;;;;1.83;1.20;;;17.80;77.10;;;;;;5042030;23;20517;-67
2022/10/05 09:06:24;;;;;;;1.43;1.20;;;17.80;78.30;;;;;;5040329;23;20163;-67
2022/10/05 09:09:02;;;;;;;3.23;1.10;;;17.90;75.30;;;;;;5040766;23;20171;-67
2022/10/05 09:11:39;;;;;;;1.53;1.03;;;18.10;74.40;;;;;;5039739;23;20167;-67
2022/10/05 09:14:04;;;;;;;1.40;1.30;;;18.40;73.80;;;;;;5040620;23;20963;-67
2022/10/05 09:16:50;;;;;;;1.47;1.20;;;18.50;72.30;;;;;;5040424;23;20743;-67
2022/10/05 09:18:58;;;;;;;1.10;1.00;;;18.60;68.30;;;;;;5042156;23;20166;-67
2022/10/05 09:21:13;;;;;;;1.33;1.20;;;18.80;66.80;;;;;;5041451;23;20171;-68
2022/10/05 09:23:36;;;;;;;3.20;1.20;;;18.80;65.10;;;;;;5040459;23;20171;-67
2022/10/05 09:25:53;;;;;;;1.53;1.10;;;18.90;65.30;;;;;;5040510;23;20399;-67
2022/10/05 09:28:31;;;;;;;1.07;1.00;;;19.00;64.30;;;;;;5040077;23;20199;-67
2022/10/05 09:30:44;;;;;;;2.20;1.20;;;18.90;64.20;;;;;;5041129;23;20777;-68
2022/10/05 09:33:12;;;;;;;1.93;1.10;;;19.00;62.30;;;;;;5040318;23;20175;-68
2022/10/05 09:35:47;;;;;;;1.30;1.20;;;19.20;60.20;;;;;;5041894;23;20238;-68
2022/10/05 09:38:31;;;;;;;1.13;0.90;;;19.20;60.10;;;;;;5040267;23;20206;-67
2022/10/05 09:41:05;;;;;;;1.67;1.00;;;19.50;59.00;;;;;;5039635;23;20225;-67
2022/10/05 09:43:21;;;;;;;1.53;1.10;;;19.70;54.70;;;;;;5041783;23;20241;-67
2022/10/05 09:45:52;;;;;;;1.43;1.00;;;20.10;52.90;;;;;;5040703;23;20167;-67
2022/10/05 09:48:24;;;;;;;0.90;0.90;;;21.00;50.50;;;;;;5042179;23;20199;-68
2022/10/05 09:50:56;;;;;;;0.90;0.90;;;20.90;50.30;;;;;;5043081;23;20166;-67
2022/10/05 09:53:39;;;;;;;2.00;1.10;;;21.80;45.90;;;;;;5042272;23;20242;-67
2022/10/05 09:56:12;;;;;;;1.87;1.10;;;21.60;46.90;;;;;;5042587;23;20159;-67
2022/10/05 09:58:27;;;;;;;1.17;1.00;;;21.80;46.00;;;;;;5042488;23;20167;-67
2022/10/05 10:01:09;;;;;;;1.97;1.10;;;22.30;43.80;;;;;;5043020;23;20174;-68
2022/10/05 10:04:06;;;;;;;1.20;1.10;;;21.90;44.10;;;;;;5042482;23;20203;-67
2022/10/05 10:06:38;;;;;;;1.23;1.10;;;22.10;45.40;;;;;;5043753;23;20170;-66
2022/10/05 10:08:51;;;;;;;1.43;1.00;;;22.80;43.40;;;;;;5044068;23;20159;-68
2022/10/05 10:11:20;;;;;;;1.00;1.00;;;22.60;41.80;;;;;;5041848;23;20534;-67
2022/10/05 10:13:59;;;;;;;1.83;1.10;;;22.40;41.80;;;;;;5042291;23;20262;-67
2022/10/05 10:16:32;;;;;;;2.10;1.10;;;22.70;41.90;;;;;;5041911;23;20155;-67
2022/10/05 10:19:08;;;;;;;1.10;1.07;;;22.70;40.70;;;;;;5043799;23;20160;-67
2022/10/05 10:21:45;;;;;;;1.23;1.00;;;22.60;40.60;;;;;;5042659;23;20169;-67
2022/10/05 10:24:16;;;;;;;1.17;1.07;;;22.10;40.90;;;;;;5043534;23;20703;-67
2022/10/05 10:26:57;;;;;;;1.63;0.90;;;22.00;39.80;;;;;;5043549;23;20214;-67
2022/10/05 10:29:30;;;;;;;1.57;0.93;;;22.20;38.60;;;;;;5042001;23;20162;-67
2022/10/05 10:31:53;;;;;;;1.37;1.27;;;22.70;37.60;;;;;;5041449;23;20202;-67
2022/10/05 10:34:33;;;;;;;1.07;1.03;;;23.40;37.20;;;;;;5063445;23;20257;-67
2022/10/05 10:37:27;;;;;;;0.87;0.87;;;23.60;36.20;;;;;;5067871;23;20165;-66
2022/10/05 10:40:14;;;;;;;0.97;0.90;;;23.50;35.50;;;;;;5042224;23;20163;-68
2022/10/05 10:42:52;;;;;;;1.20;0.90;;;23.70;34.40;;;;;;5067784;23;20170;-68
2022/10/05 10:45:16;;;;;;;1.00;1.00;;;24.20;35.00;;;;;;5067722;23;20573;-67
2022/10/05 10:47:59;;;;;;;2.53;1.10;;;25.10;32.20;;;;;;5041963;23;20233;-68
2022/10/05 10:50:14;;;;;;;1.37;1.10;;;24.60;33.20;;;;;;5067571;23;20213;-67
2022/10/05 10:52:27;;;;;;;1.17;1.10;;;24.60;34.00;;;;;;5067626;23;20512;-68
2022/10/05 10:55:09;;;;;;;1.03;1.03;;;25.30;31.50;;;;;;5067708;23;20622;-67
2022/10/05 10:57:27;;;;;;;1.27;1.17;;;24.70;31.00;;;;;;5067755;23;20165;-68
2022/10/05 11:00:15;;;;;;;0.97;0.97;;;24.50;33.20;;;;;;5041631;23;20502;-67
2022/10/05 11:02:54;;;;;;;1.30;1.20;;;25.20;32.00;;;;;;5067711;23;20185;-67
2022/10/05 11:05:25;;;;;;;1.83;1.13;;;25.40;31.00;;;;;;5067504;23;20212;-68
2022/10/05 11:07:26;;;;;;;1.87;1.00;;;25.90;31.10;;;;;;5067071;23;20648;-68
2022/10/05 11:10:21;;;;;;;1.30;1.20;;;25.50;32.00;;;;;;5066989;23;20155;-67
2022/10/05 11:12:58;;;;;;;1.23;1.13;;;25.80;30.60;;;;;;5018835;23;20166;-67
2022/10/05 11:15:32;;;;;;;1.00;1.00;;;25.40;30.40;;;;;;5067293;23;20181;-67
2022/10/05 11:18:09;;;;;;;3.47;1.43;;;25.00;31.30;;;;;;5067132;23;20169;-67
2022/10/05 11:20:59;;;;;;;0.90;0.90;;;25.00;30.20;;;;;;5066689;23;20162;-67
2022/10/05 11:23:29;;;;;;;1.20;1.10;;;25.30;30.70;;;;;;5041262;23;20210;-67
2022/10/05 11:26:10;;;;;;;1.50;1.20;;;25.80;30.40;;;;;;5067430;23;20159;-67
2022/10/05 11:28:48;;;;;;;1.57;1.10;;;26.40;29.90;;;;;;5067248;23;20221;-67
2022/10/05 11:31:32;;;;;;;2.17;1.00;;;27.30;28.70;;;;;;5066281;23;20176;-67
2022/10/05 11:33:54;;;;;;;1.50;1.40;;;26.70;28.40;;;;;;5040637;23;20194;-67
2022/10/05 11:36:28;;;;;;;0.90;0.90;;;25.70;27.90;;;;;;5042635;23;20186;-67
2022/10/05 11:38:57;;;;;;;1.50;1.27;;;25.90;29.20;;;;;;5041374;23;20190;-67
2022/10/05 11:41:37;;;;;;;1.00;1.00;;;26.40;27.00;;;;;;5042205;23;20617;-67
2022/10/05 11:44:23;;;;;;;1.57;1.00;;;26.90;26.60;;;;;;5042735;23;20794;-67
2022/10/05 11:46:54;;;;;;;0.80;0.80;;;27.10;26.70;;;;;;5042603;23;20167;-67
2022/10/05 11:49:12;;;;;;;1.00;0.90;;;26.80;25.80;;;;;;5042394;23;20155;-67
2022/10/05 11:51:49;;;;;;;1.00;0.97;;;26.60;26.70;;;;;;5040510;23;20264;-67
2022/10/05 11:54:11;;;;;;;1.00;1.00;;;27.10;25.50;;;;;;5042691;23;20711;-67
2022/10/05 11:56:41;;;;;;;2.00;0.90;;;27.10;25.70;;;;;;5042500;23;20210;-66
2022/10/05 11:59:00;;;;;;;1.83;1.00;;;27.70;25.00;;;;;;5041209;23;20328;-67
2022/10/05 12:01:17;;;;;;;0.90;0.90;;;27.60;25.40;;;;;;5041752;23;20238;-67
2022/10/05 12:04:12;;;;;;;1.80;0.90;;;28.40;25.10;;;;;;5040816;23;20163;-67
2022/10/05 12:06:31;;;;;;;0.98;0.98;;;28.80;24.40;;;;;;4946393;23;20222;-64
2022/10/05 12:09:12;;;;;;;1.17;1.10;;;30.00;23.50;;;;;;5042401;23;20995;-65
2022/10/05 12:11:41;;;;;;;1.05;1.00;;;29.00;23.20;;;;;;5041574;23;20166;-65
2022/10/05 12:14:00;;;;;;;1.03;1.00;;;28.50;24.90;;;;;;5041230;23;20636;-65
2022/10/05 12:16:34;;;;;;;5.23;1.03;;;29.20;23.10;;;;;;5042256;23;20155;-65
2022/10/05 12:18:38;;;;;;;1.43;0.97;;;29.10;22.80;;;;;;5009062;23;20234;-65